Time;durP1;ratioP1;P1;durP2;ratioP2;P2;SDS_P1;SDS_P2;PMS_P1;PMS_P2;Temp;Humidity;BMP_temperature;BMP_pressure;BME280_temperature;BME280_humidity;BME280_pressure;Samples;Min_cycle;Max_cycle;Signal;HPM_P1;HPM_P2
2022/10/16 00:01:27;;;;;;;13.67;2.53;;;13.00;99.90;;;;;;5090865;28;20172;-59
2022/10/16 00:03:52;;;;;;;22.07;2.87;;;13.10;99.90;;;;;;5091107;28;20267;-59
2022/10/16 00:06:19;;;;;;;14.43;1.90;;;12.80;99.90;;;;;;5089325;28;20264;-59
2022/10/16 00:08:46;;;;;;;28.03;3.13;;;13.00;99.90;;;;;;5090762;28;20172;-59
2022/10/16 00:11:13;;;;;;;20.70;2.47;;;13.00;99.90;;;;;;5091008;28;20176;-59
2022/10/16 00:13:40;;;;;;;18.57;2.37;;;12.90;99.90;;;;;;5090632;28;20614;-59
2022/10/16 00:16:06;;;;;;;18.40;2.57;;;;;;;;;;5090596;28;20184;-59
2022/10/16 00:18:33;;;;;;;24.60;3.13;;;12.90;99.90;;;;;;5072482;28;20215;-58
2022/10/16 00:21:04;;;;;;;24.33;2.80;;;12.80;99.90;;;;;;5090536;28;20184;-59
2022/10/16 00:23:31;;;;;;;17.60;2.47;;;12.80;99.90;;;;;;5090955;28;20529;-58
2022/10/16 00:26:02;;;;;;;16.77;2.60;;;12.50;99.90;;;;;;5090273;28;20769;-58
2022/10/16 00:28:29;;;;;;;20.00;2.40;;;12.70;99.90;;;;;;5073943;28;20653;-59
2022/10/16 00:30:55;;;;;;;20.47;3.10;;;13.10;99.90;;;;;;5090847;28;20638;-58
2022/10/16 00:33:20;;;;;;;21.07;2.83;;;12.50;99.90;;;;;;5090424;28;20201;-59
2022/10/16 00:35:47;;;;;;;23.07;2.63;;;12.70;99.90;;;;;;5090305;28;20175;-59
2022/10/16 00:38:13;;;;;;;28.13;2.37;;;;;;;;;;5088575;28;20200;-59
2022/10/16 00:40:39;;;;;;;11.03;2.10;;;12.60;99.90;;;;;;5090339;28;20179;-60
2022/10/16 00:43:30;;;;;;;19.40;2.50;;;12.60;99.90;;;;;;5090818;28;20661;-59
2022/10/16 00:45:56;;;;;;;14.87;1.97;;;12.60;99.90;;;;;;5076142;28;20206;-59
2022/10/16 00:48:22;;;;;;;17.03;2.40;;;12.70;99.90;;;;;;5092787;28;20207;-59
2022/10/16 00:50:47;;;;;;;20.13;2.33;;;12.70;99.90;;;;;;5094674;28;20634;-59
2022/10/16 00:53:14;;;;;;;17.73;2.60;;;12.30;99.90;;;;;;5077349;28;20172;-59
2022/10/16 00:55:40;;;;;;;18.10;2.47;;;12.60;99.90;;;;;;5088138;28;20200;-59
2022/10/16 00:58:05;;;;;;;16.17;1.13;;;12.50;99.90;;;;;;5094334;28;20689;-59
2022/10/16 01:00:31;;;;;;;18.03;2.17;;;12.40;99.90;;;;;;5094210;28;20538;-59
2022/10/16 01:03:00;;;;;;;12.30;1.67;;;12.50;99.90;;;;;;5094174;28;20187;-59
2022/10/16 01:05:55;;;;;;;24.37;2.83;;;12.40;99.90;;;;;;5092903;28;20187;-59
2022/10/16 01:08:36;;;;;;;13.40;2.30;;;12.40;99.90;;;;;;5092411;28;20201;-59
2022/10/16 01:11:16;;;;;;;16.13;2.27;;;12.70;99.90;;;;;;5094212;28;20260;-59
2022/10/16 01:13:49;;;;;;;17.53;2.10;;;12.40;99.90;;;;;;5093850;28;20187;-59
2022/10/16 01:16:19;;;;;;;18.37;2.43;;;12.30;99.90;;;;;;5093868;28;20179;-60
2022/10/16 01:18:44;;;;;;;15.63;2.10;;;;;;;;;;5093842;28;20712;-59
2022/10/16 01:21:16;;;;;;;14.83;1.77;;;12.70;99.90;;;;;;5077056;28;20184;-59
2022/10/16 01:24:05;;;;;;;14.37;1.77;;;12.30;99.90;;;;;;5087398;28;20263;-59
2022/10/16 01:27:21;;;;;;;11.60;2.10;;;12.60;99.90;;;;;;5085316;28;20210;-59
2022/10/16 01:30:09;;;;;;;12.33;2.07;;;12.20;99.90;;;;;;5067476;28;20662;-59
2022/10/16 01:32:40;;;;;;;16.83;2.47;;;12.20;99.90;;;;;;5093530;28;20179;-59
2022/10/16 01:35:16;;;;;;;17.00;1.90;;;12.20;99.90;;;;;;5093730;28;20588;-59
2022/10/16 01:37:50;;;;;;;14.00;1.80;;;12.00;99.90;;;;;;5093130;28;20302;-59
2022/10/16 01:40:19;;;;;;;15.03;2.00;;;12.10;99.90;;;;;;5093773;28;20179;-59
2022/10/16 01:42:57;;;;;;;14.67;1.73;;;12.20;99.90;;;;;;5093455;28;20172;-59
2022/10/16 01:45:22;;;;;;;14.80;1.80;;;11.60;99.90;;;;;;5093703;28;20693;-59
2022/10/16 01:47:50;;;;;;;10.93;1.60;;;12.00;99.90;;;;;;5093341;28;20195;-59
2022/10/16 01:50:19;;;;;;;11.27;2.20;;;12.30;99.90;;;;;;5093387;28;20222;-59
2022/10/16 01:52:49;;;;;;;21.03;2.30;;;12.10;99.90;;;;;;5093360;28;20275;-59
2022/10/16 01:55:22;;;;;;;18.60;2.33;;;12.30;99.90;;;;;;5092318;28;20160;-59
2022/10/16 01:57:50;;;;;;;12.17;1.83;;;12.70;99.90;;;;;;5088919;28;20215;-59
2022/10/16 02:00:18;;;;;;;14.07;1.97;;;12.00;99.90;;;;;;5092851;28;20176;-60
2022/10/16 02:02:48;;;;;;;15.20;2.07;;;12.10;99.90;;;;;;5093172;28;20191;-60
2022/10/16 02:05:30;;;;;;;15.77;2.30;;;11.90;99.90;;;;;;5093065;28;20172;-59
2022/10/16 02:07:56;;;;;;;12.80;2.27;;;12.00;99.90;;;;;;5093252;28;20187;-59
2022/10/16 02:10:24;;;;;;;12.27;2.10;;;11.80;99.90;;;;;;5092909;28;20180;-59
2022/10/16 02:12:57;;;;;;;18.07;1.90;;;11.90;99.90;;;;;;5093318;28;20634;-59
2022/10/16 02:15:23;;;;;;;16.73;2.03;;;12.00;99.90;;;;;;5093109;28;20186;-59
2022/10/16 02:17:48;;;;;;;18.10;2.40;;;12.00;99.90;;;;;;5092942;28;20685;-59
2022/10/16 02:20:14;;;;;;;16.37;2.00;;;;;;;;;;5092254;28;20205;-59
2022/10/16 02:22:46;;;;;;;18.93;2.20;;;11.90;99.90;;;;;;5092950;28;20228;-59
2022/10/16 02:25:31;;;;;;;14.37;2.13;;;12.00;99.90;;;;;;5091489;28;20223;-59
2022/10/16 02:28:06;;;;;;;10.43;1.80;;;11.70;99.90;;;;;;5085646;28;20194;-62
2022/10/16 02:30:42;;;;;;;18.07;1.90;;;11.60;99.90;;;;;;5092589;28;20187;-61
2022/10/16 02:33:11;;;;;;;15.17;2.03;;;11.80;99.90;;;;;;5092854;28;20172;-58
2022/10/16 02:35:38;;;;;;;13.57;2.00;;;11.70;99.90;;;;;;5092511;28;20685;-60
2022/10/16 02:38:04;;;;;;;15.27;2.03;;;11.60;99.90;;;;;;5092571;28;20207;-59
2022/10/16 02:40:30;;;;;;;14.30;2.00;;;12.10;99.90;;;;;;5092385;28;20168;-60
2022/10/16 02:42:56;;;;;;;17.03;2.17;;;;;;;;;;5092732;28;20176;-60
2022/10/16 02:45:23;;;;;;;11.30;1.60;;;11.80;99.90;;;;;;5092561;28;20176;-60
2022/10/16 02:47:49;;;;;;;11.60;2.00;;;11.70;99.90;;;;;;5091896;28;20180;-60
2022/10/16 02:50:15;;;;;;;13.57;1.80;;;11.80;99.90;;;;;;5092453;28;20510;-60
2022/10/16 02:52:41;;;;;;;14.37;2.03;;;11.90;99.90;;;;;;5092297;28;20187;-60
2022/10/16 02:55:07;;;;;;;14.13;2.07;;;11.90;99.90;;;;;;5092149;28;20175;-63
2022/10/16 02:57:32;;;;;;;19.37;2.27;;;11.70;99.90;;;;;;5092037;28;20244;-61
2022/10/16 02:59:58;;;;;;;16.80;2.73;;;11.60;99.90;;;;;;5092373;28;20618;-60
2022/10/16 03:02:24;;;;;;;10.93;1.73;;;11.50;99.90;;;;;;5091881;28;20188;-61
2022/10/16 03:04:50;;;;;;;18.47;2.37;;;11.60;99.90;;;;;;5092106;28;20694;-61
2022/10/16 03:07:15;;;;;;;16.20;2.17;;;12.00;99.90;;;;;;5092139;28;20642;-61
2022/10/16 03:09:41;;;;;;;13.77;2.07;;;;;;;;;;5091709;28;20257;-61
2022/10/16 03:12:07;;;;;;;11.73;1.80;;;11.70;99.90;;;;;;5091648;28;20172;-61
2022/10/16 03:14:33;;;;;;;15.47;1.77;;;11.60;99.90;;;;;;5091964;28;20546;-61
2022/10/16 03:16:59;;;;;;;21.00;1.80;;;11.60;99.90;;;;;;5091805;28;20180;-61
2022/10/16 03:19:25;;;;;;;12.80;2.00;;;;;;;;;;5092032;28;20164;-61
2022/10/16 03:21:50;;;;;;;13.83;2.43;;;11.50;99.90;;;;;;5091842;28;20581;-61
2022/10/16 03:24:16;;;;;;;13.50;2.13;;;11.60;99.90;;;;;;5091554;28;20227;-61
2022/10/16 03:26:42;;;;;;;14.07;2.23;;;11.70;99.90;;;;;;5086496;28;20225;-61
2022/10/16 03:29:07;;;;;;;18.50;1.87;;;11.60;99.90;;;;;;5091296;28;20593;-61
2022/10/16 03:31:33;;;;;;;15.30;1.87;;;11.70;99.90;;;;;;5091367;28;20180;-62
2022/10/16 03:34:18;;;;;;;14.07;1.63;;;12.80;99.90;;;;;;4818273;22;22271;-65
2022/10/16 03:36:43;;;;;;;19.07;2.27;;;11.80;99.90;;;;;;5052165;22;20239;-60
2022/10/16 03:39:09;;;;;;;12.33;1.90;;;11.60;99.90;;;;;;5047091;28;20662;-60
2022/10/16 03:41:34;;;;;;;17.67;2.57;;;11.50;99.90;;;;;;5051384;28;20176;-61
2022/10/16 03:44:00;;;;;;;18.80;2.70;;;11.40;99.90;;;;;;5063255;28;20176;-60
2022/10/16 03:46:26;;;;;;;21.57;3.43;;;;;;;;;;5056050;28;20279;-60
2022/10/16 03:48:51;;;;;;;13.77;2.57;;;10.90;99.90;;;;;;5071017;28;20185;-60
2022/10/16 03:51:17;;;;;;;19.93;2.00;;;11.00;99.90;;;;;;5071408;28;20657;-60
2022/10/16 03:53:43;;;;;;;23.97;2.00;;;;;;;;;;5070855;28;20238;-60
2022/10/16 03:56:09;;;;;;;17.57;1.90;;;11.30;99.90;;;;;;5068261;28;20195;-60
2022/10/16 03:58:35;;;;;;;17.33;2.17;;;;;;;;;;5050989;28;20217;-60
2022/10/16 04:01:00;;;;;;;12.77;1.97;;;10.90;99.90;;;;;;5051059;28;20234;-60
2022/10/16 04:03:26;;;;;;;15.43;2.50;;;10.90;99.90;;;;;;5050883;28;20188;-60
2022/10/16 04:05:52;;;;;;;17.20;1.83;;;11.10;99.90;;;;;;5051037;28;20181;-60
2022/10/16 04:08:18;;;;;;;13.97;1.83;;;11.10;99.90;;;;;;5070682;28;20222;-60
2022/10/16 04:10:44;;;;;;;12.80;1.50;;;10.90;99.90;;;;;;5070873;28;20205;-60
2022/10/16 04:13:10;;;;;;;23.47;2.70;;;;;;;;;;5068813;28;20165;-60
2022/10/16 04:15:36;;;;;;;16.93;2.00;;;;;;;;;;5062832;28;20177;-60
2022/10/16 04:18:01;;;;;;;19.63;2.13;;;10.60;99.90;;;;;;5046562;28;20209;-61
2022/10/16 04:20:27;;;;;;;19.13;2.20;;;10.60;99.90;;;;;;5050912;28;20165;-61
2022/10/16 04:22:53;;;;;;;21.13;2.60;;;10.60;99.90;;;;;;5054511;28;20199;-60
2022/10/16 04:25:18;;;;;;;15.43;1.83;;;11.00;99.90;;;;;;5057181;28;20169;-60
2022/10/16 04:27:44;;;;;;;19.90;2.00;;;10.60;99.90;;;;;;5065371;28;20251;-60
2022/10/16 04:30:10;;;;;;;15.87;1.90;;;10.60;99.90;;;;;;5066943;28;20180;-60
2022/10/16 04:32:35;;;;;;;20.73;2.43;;;10.40;99.90;;;;;;5060262;28;20183;-60
2022/10/16 04:35:02;;;;;;;10.07;1.97;;;;;;;;;;5050447;28;20239;-61
2022/10/16 04:37:28;;;;;;;13.30;1.97;;;10.60;99.90;;;;;;5063823;28;20218;-60
2022/10/16 04:39:54;;;;;;;22.53;2.87;;;;;;;;;;5070160;28;20180;-60
2022/10/16 04:42:20;;;;;;;18.27;2.43;;;10.40;99.90;;;;;;5066451;28;20231;-60
2022/10/16 04:44:46;;;;;;;14.47;2.00;;;10.70;99.90;;;;;;5065110;28;20173;-60
2022/10/16 04:47:12;;;;;;;19.53;2.03;;;;;;;;;;5054255;28;20542;-60
2022/10/16 04:49:38;;;;;;;22.63;2.23;;;10.90;99.90;;;;;;5050637;28;20169;-60
2022/10/16 04:52:03;;;;;;;24.07;2.57;;;11.20;99.90;;;;;;5050452;28;20772;-60
2022/10/16 04:54:30;;;;;;;21.03;1.83;;;;;;;;;;5050388;28;20173;-60
2022/10/16 04:56:55;;;;;;;12.40;1.77;;;11.20;99.90;;;;;;5057720;28;20188;-60
2022/10/16 04:59:22;;;;;;;16.60;1.90;;;10.90;99.90;;;;;;5070297;28;20188;-60
2022/10/16 05:01:48;;;;;;;18.30;2.23;;;;;;;;;;5065467;28;20176;-60
2022/10/16 05:04:14;;;;;;;20.73;1.87;;;;;;;;;;5051290;28;20202;-60
2022/10/16 05:06:40;;;;;;;8.93;2.03;;;11.40;99.90;;;;;;5050875;28;20262;-61
2022/10/16 05:09:06;;;;;;;18.10;2.30;;;11.10;99.90;;;;;;5050282;28;20595;-60
2022/10/16 05:11:32;;;;;;;13.00;1.83;;;11.20;99.90;;;;;;5053877;28;20671;-61
2022/10/16 05:13:58;;;;;;;13.97;1.83;;;;;;;;;;5050620;28;20201;-61
2022/10/16 05:16:24;;;;;;;16.40;1.97;;;11.00;99.90;;;;;;5050922;28;20254;-61
2022/10/16 05:18:51;;;;;;;16.00;1.90;;;10.90;99.90;;;;;;5050211;28;20232;-61
2022/10/16 05:21:16;;;;;;;15.13;2.57;;;11.10;99.90;;;;;;5050111;28;20252;-61
2022/10/16 05:23:42;;;;;;;17.03;2.43;;;;;;;;;;5051093;28;20181;-61
2022/10/16 05:26:08;;;;;;;16.23;2.50;;;10.80;99.90;;;;;;5061005;28;20231;-61
2022/10/16 05:28:34;;;;;;;14.83;1.70;;;11.30;99.90;;;;;;5066458;28;20364;-61
2022/10/16 05:31:06;;;;;;;16.57;1.80;;;11.20;99.90;;;;;;5051141;28;20617;-61
2022/10/16 05:33:32;;;;;;;12.77;1.80;;;11.00;99.90;;;;;;5050786;28;20189;-61
2022/10/16 05:36:02;;;;;;;13.53;1.80;;;10.90;99.90;;;;;;5066643;28;20750;-61
2022/10/16 05:38:28;;;;;;;14.23;1.80;;;10.90;99.90;;;;;;5073601;28;20331;-61
2022/10/16 05:40:54;;;;;;;16.10;2.07;;;10.80;99.90;;;;;;5073226;28;20577;-62
2022/10/16 05:43:20;;;;;;;20.63;2.10;;;10.90;99.90;;;;;;5064399;28;20193;-61
2022/10/16 05:46:11;;;;;;;19.03;2.27;;;10.80;99.90;;;;;;5055239;28;20227;-61
2022/10/16 05:48:37;;;;;;;12.20;1.97;;;;;;;;;;5072193;28;20638;-61
2022/10/16 05:51:06;;;;;;;16.07;1.97;;;10.50;99.90;;;;;;5057122;28;20249;-61
2022/10/16 05:53:34;;;;;;;20.93;2.13;;;11.00;99.90;;;;;;5057153;28;20168;-61
2022/10/16 05:56:00;;;;;;;19.07;2.60;;;10.70;99.90;;;;;;5069412;28;20169;-62
2022/10/16 05:58:32;;;;;;;14.70;2.00;;;10.80;99.90;;;;;;5054506;28;20225;-61
2022/10/16 06:01:13;;;;;;;17.07;2.00;;;10.80;99.90;;;;;;5053135;28;20181;-61
2022/10/16 06:03:39;;;;;;;13.10;1.83;;;10.70;99.90;;;;;;5053323;28;20272;-67
2022/10/16 06:06:13;;;;;;;17.80;2.17;;;10.80;99.90;;;;;;5055494;28;20264;-63
2022/10/16 06:08:40;;;;;;;20.60;2.03;;;10.80;99.90;;;;;;5064636;28;20180;-63
2022/10/16 06:11:07;;;;;;;16.73;2.67;;;11.00;99.90;;;;;;5069860;28;20230;-63
2022/10/16 06:13:34;;;;;;;16.70;2.03;;;;;;;;;;5067458;28;20169;-62
2022/10/16 06:16:00;;;;;;;17.00;2.23;;;10.90;99.90;;;;;;5055479;28;20188;-62
2022/10/16 06:18:27;;;;;;;14.83;2.27;;;10.70;99.90;;;;;;5063583;28;20216;-63
2022/10/16 06:20:53;;;;;;;9.93;1.70;;;10.90;99.90;;;;;;5065688;28;20180;-63
2022/10/16 06:23:19;;;;;;;13.50;1.83;;;;;;;;;;5052379;28;20235;-62
2022/10/16 06:25:45;;;;;;;16.00;2.20;;;11.00;99.90;;;;;;5053652;28;20193;-62
2022/10/16 06:28:11;;;;;;;17.83;2.73;;;;;;;;;;5067939;28;20173;-62
2022/10/16 06:30:36;;;;;;;20.37;2.63;;;10.90;99.90;;;;;;5052103;28;20542;-62
2022/10/16 06:33:02;;;;;;;16.47;2.50;;;;;;;;;;5053791;28;20221;-62
2022/10/16 06:35:29;;;;;;;14.47;1.73;;;;;;;;;;5053607;28;20583;-62
2022/10/16 06:37:54;;;;;;;12.53;1.60;;;10.50;99.90;;;;;;5069883;28;20266;-62
2022/10/16 06:40:20;;;;;;;13.40;2.70;;;10.50;99.90;;;;;;5052907;28;20759;-63
2022/10/16 06:42:46;;;;;;;16.90;2.30;;;10.20;99.90;;;;;;5073476;28;20188;-62
2022/10/16 06:45:12;;;;;;;13.33;1.80;;;;;;;;;;5070909;28;20183;-62
2022/10/16 06:47:38;;;;;;;11.90;1.93;;;;;;;;;;5056955;28;20185;-62
2022/10/16 06:50:06;;;;;;;17.13;1.90;;;10.00;99.90;;;;;;5057367;28;20330;-62
2022/10/16 06:52:33;;;;;;;22.67;2.40;;;10.00;99.90;;;;;;5063439;28;20287;-64
2022/10/16 06:54:59;;;;;;;17.40;2.53;;;;;;;;;;5064648;28;20569;-63
2022/10/16 06:57:25;;;;;;;23.63;2.17;;;10.40;99.90;;;;;;5071164;28;20204;-62
2022/10/16 06:59:50;;;;;;;15.17;2.80;;;10.20;99.90;;;;;;5057052;28;20188;-63
2022/10/16 07:02:16;;;;;;;13.57;1.90;;;;;;;;;;5048375;28;20691;-63
2022/10/16 07:04:42;;;;;;;22.20;2.53;;;10.10;99.90;;;;;;5051781;28;20165;-63
2022/10/16 07:07:08;;;;;;;13.60;1.97;;;;;;;;;;5052011;28;20261;-63
2022/10/16 07:09:34;;;;;;;14.20;1.60;;;;;;;;;;5051539;28;20181;-63
2022/10/16 07:12:00;;;;;;;15.50;2.37;;;;;;;;;;5051762;28;20201;-63
2022/10/16 07:14:25;;;;;;;13.87;1.90;;;10.00;99.90;;;;;;5052879;28;20185;-63
2022/10/16 07:16:51;;;;;;;20.37;2.37;;;10.30;99.90;;;;;;5052096;28;20177;-63
2022/10/16 07:19:17;;;;;;;13.10;1.93;;;9.90;99.90;;;;;;5051671;28;20212;-63
2022/10/16 07:21:44;;;;;;;17.03;2.00;;;10.20;99.90;;;;;;5051944;28;20584;-62
2022/10/16 07:24:14;;;;;;;15.03;2.33;;;10.20;99.90;;;;;;5051665;28;20177;-63
2022/10/16 07:26:41;;;;;;;19.13;2.10;;;10.20;99.90;;;;;;5070112;28;20203;-62
2022/10/16 07:29:13;;;;;;;19.57;2.30;;;9.90;99.90;;;;;;5055638;28;20176;-61
2022/10/16 07:31:39;;;;;;;12.47;1.87;;;10.30;99.90;;;;;;5050388;28;20184;-62
2022/10/16 07:34:05;;;;;;;11.00;2.20;;;10.40;99.90;;;;;;5051130;28;20181;-62
2022/10/16 07:36:31;;;;;;;21.63;2.60;;;10.30;99.90;;;;;;5040894;28;20284;-62
2022/10/16 07:38:57;;;;;;;21.83;2.43;;;;;;;;;;5041583;28;20227;-62
2022/10/16 07:41:22;;;;;;;11.67;2.00;;;10.60;99.90;;;;;;5065203;28;20288;-62
2022/10/16 07:43:50;;;;;;;13.50;2.10;;;10.60;99.90;;;;;;5053599;28;20246;-63
2022/10/16 07:46:17;;;;;;;17.27;2.30;;;10.60;99.90;;;;;;5049112;28;20199;-63
2022/10/16 07:48:47;;;;;;;14.23;2.00;;;10.80;99.90;;;;;;5051160;28;20205;-63
2022/10/16 07:51:15;;;;;;;12.00;2.07;;;10.90;99.90;;;;;;5051338;28;20169;-63
2022/10/16 07:53:41;;;;;;;18.67;2.57;;;;;;;;;;5052134;28;20184;-62
2022/10/16 07:56:08;;;;;;;14.53;2.33;;;11.00;99.90;;;;;;5050832;28;20180;-62
2022/10/16 07:58:36;;;;;;;14.87;2.07;;;11.00;99.90;;;;;;5050875;28;20224;-64
2022/10/16 08:01:10;;;;;;;18.60;2.07;;;11.10;99.90;;;;;;5050957;28;20169;-63
2022/10/16 08:03:36;;;;;;;20.10;1.73;;;;;;;;;;5054000;28;20191;-62
2022/10/16 08:06:02;;;;;;;14.03;2.33;;;9.50;99.90;;;;;;5045300;28;20719;-62
2022/10/16 08:08:28;;;;;;;16.93;2.50;;;13.60;99.90;;;;;;5052421;28;20176;-63
2022/10/16 08:10:54;;;;;;;16.47;2.13;;;13.40;99.90;;;;;;5061000;28;20264;-63
2022/10/16 08:13:20;;;;;;;20.77;2.10;;;13.30;99.90;;;;;;5048786;28;20177;-62
2022/10/16 08:15:46;;;;;;;14.33;1.80;;;13.10;99.90;;;;;;5041890;28;20174;-62
2022/10/16 08:18:13;;;;;;;15.33;2.43;;;12.80;99.90;;;;;;5039864;28;20220;-62
2022/10/16 08:20:40;;;;;;;14.37;1.60;;;12.80;99.90;;;;;;5046408;28;20169;-63
2022/10/16 08:23:06;;;;;;;16.17;2.70;;;12.50;99.90;;;;;;5049999;28;20181;-62
2022/10/16 08:25:34;;;;;;;24.37;2.53;;;12.60;99.90;;;;;;5069018;28;20211;-62
2022/10/16 08:28:00;;;;;;;14.63;2.20;;;12.50;99.90;;;;;;5068795;28;20177;-62
2022/10/16 08:30:25;;;;;;;19.00;2.37;;;12.80;99.90;;;;;;5058079;28;20176;-64
2022/10/16 08:32:51;;;;;;;17.17;2.70;;;12.70;99.90;;;;;;5050477;28;20271;-61
2022/10/16 08:35:17;;;;;;;16.80;2.47;;;12.40;99.90;;;;;;5067348;28;20224;-61
2022/10/16 08:37:43;;;;;;;15.00;2.37;;;13.00;99.90;;;;;;5068936;28;20685;-61
2022/10/16 08:40:27;;;;;;;14.13;2.97;;;12.80;99.90;;;;;;5069151;28;20207;-62
2022/10/16 08:42:52;;;;;;;22.93;2.87;;;12.90;99.90;;;;;;5050212;28;20286;-61
2022/10/16 08:45:47;;;;;;;21.53;2.93;;;12.50;99.90;;;;;;5066018;28;20196;-60
2022/10/16 08:48:26;;;;;;;22.90;2.50;;;12.90;99.90;;;;;;5030641;28;20185;-62
2022/10/16 08:50:53;;;;;;;18.67;2.00;;;13.00;99.90;;;;;;5053954;28;20271;-62
2022/10/16 08:53:26;;;;;;;22.97;2.57;;;13.10;99.90;;;;;;5050340;28;20604;-60
2022/10/16 08:55:53;;;;;;;16.77;2.37;;;13.50;99.90;;;;;;5046339;28;20215;-60
2022/10/16 08:58:21;;;;;;;17.13;2.77;;;13.20;99.90;;;;;;5049938;28;20219;-60
2022/10/16 09:00:52;;;;;;;19.00;2.77;;;13.30;99.90;;;;;;5050334;28;20173;-60
2022/10/16 09:03:33;;;;;;;15.27;2.70;;;13.50;99.90;;;;;;5050745;28;20173;-59
2022/10/16 09:06:40;;;;;;;25.63;2.77;;;13.50;99.90;;;;;;5030309;28;20629;-59
2022/10/16 09:09:09;;;;;;;20.87;2.63;;;13.60;99.90;;;;;;5031912;28;20213;-60
2022/10/16 09:12:01;;;;;;;11.53;2.03;;;13.90;99.90;;;;;;5034229;28;20666;-60
2022/10/16 09:14:57;;;;;;;14.97;2.47;;;13.70;99.90;;;;;;5059151;28;20269;-60
2022/10/16 09:17:48;;;;;;;17.70;3.10;;;13.90;99.90;;;;;;5068157;28;20229;-61
2022/10/16 09:20:29;;;;;;;14.47;2.20;;;13.90;99.90;;;;;;5073269;28;20639;-61
2022/10/16 09:23:15;;;;;;;12.87;2.77;;;14.40;99.90;;;;;;5070797;28;20255;-61
2022/10/16 09:25:48;;;;;;;17.60;2.60;;;14.10;99.90;;;;;;5053318;28;20189;-60
2022/10/16 09:28:14;;;;;;;16.02;2.17;;;14.60;99.90;;;;;;5054567;28;20663;-61
2022/10/16 09:30:40;;;;;;;20.08;2.22;;;14.30;99.90;;;;;;5052649;28;20185;-61
2022/10/16 09:33:07;;;;;;;27.70;3.07;;;14.70;99.90;;;;;;5053257;28;20651;-61
2022/10/16 09:35:39;;;;;;;17.13;2.03;;;14.60;99.90;;;;;;5053671;28;20224;-61
2022/10/16 09:38:06;;;;;;;19.08;2.60;;;15.90;99.90;;;;;;5053439;28;20223;-61
2022/10/16 09:40:38;;;;;;;19.63;2.75;;;15.10;99.90;;;;;;5053421;28;20161;-61
2022/10/16 09:43:31;;;;;;;19.10;2.05;;;15.50;99.90;;;;;;5053304;28;20170;-61
2022/10/16 09:46:00;;;;;;;14.65;2.40;;;15.60;99.90;;;;;;5053473;28;20588;-61
2022/10/16 09:48:33;;;;;;;20.63;2.70;;;15.70;99.90;;;;;;5053500;28;20208;-61
2022/10/16 09:51:02;;;;;;;19.17;2.38;;;15.70;99.90;;;;;;5053430;28;20218;-61
2022/10/16 09:53:42;;;;;;;18.10;2.85;;;15.80;99.90;;;;;;5053361;28;20171;-61
2022/10/16 09:56:13;;;;;;;13.48;2.40;;;16.20;99.90;;;;;;5052270;28;20227;-61
2022/10/16 09:58:43;;;;;;;19.50;2.40;;;16.30;99.90;;;;;;5051496;28;20402;-60
2022/10/16 10:01:15;;;;;;;14.93;2.30;;;16.30;99.90;;;;;;5051266;28;20527;-60
2022/10/16 10:03:43;;;;;;;15.93;2.90;;;15.80;99.90;;;;;;5051246;28;20592;-60
2022/10/16 10:06:29;;;;;;;15.35;2.30;;;16.00;99.90;;;;;;5051008;28;20257;-60
2022/10/16 10:08:56;;;;;;;13.60;1.77;;;15.90;99.90;;;;;;5051447;28;20244;-60
2022/10/16 10:11:46;;;;;;;16.70;2.13;;;16.00;99.90;;;;;;5052433;28;20279;-60
2022/10/16 10:14:23;;;;;;;22.60;2.58;;;16.10;99.90;;;;;;5053007;28;20251;-60
2022/10/16 10:16:50;;;;;;;12.27;2.05;;;16.40;99.90;;;;;;5053277;28;20176;-60
2022/10/16 10:19:21;;;;;;;12.85;1.98;;;16.40;99.90;;;;;;5052711;28;20220;-61
2022/10/16 10:21:47;;;;;;;13.90;2.42;;;16.70;99.90;;;;;;5053013;28;20169;-60
2022/10/16 10:24:14;;;;;;;12.82;1.85;;;16.90;99.90;;;;;;5052834;28;20193;-60
2022/10/16 10:26:54;;;;;;;13.07;2.10;;;17.00;99.90;;;;;;5051703;28;20363;-60
2022/10/16 10:29:38;;;;;;;14.98;2.05;;;17.10;99.90;;;;;;5052871;28;20180;-60
2022/10/16 10:32:24;;;;;;;14.48;1.90;;;17.00;99.90;;;;;;5052664;28;20212;-61
2022/10/16 10:35:05;;;;;;;16.08;2.25;;;17.50;99.90;;;;;;5052524;28;20191;-61
2022/10/16 10:37:45;;;;;;;9.27;1.95;;;17.80;99.90;;;;;;5052452;28;20209;-60
2022/10/16 10:40:52;;;;;;;10.70;1.75;;;18.30;99.90;;;;;;5052439;28;20226;-61
2022/10/16 10:43:41;;;;;;;15.05;1.90;;;17.90;99.90;;;;;;5052585;28;20191;-61
2022/10/16 10:46:14;;;;;;;13.73;1.90;;;17.80;99.90;;;;;;5014818;28;20177;-61
2022/10/16 10:49:10;;;;;;;15.27;2.13;;;17.60;99.90;;;;;;5052132;28;20257;-61
2022/10/16 10:51:58;;;;;;;9.48;1.48;;;18.00;99.90;;;;;;5052124;28;20658;-62
2022/10/16 10:54:46;;;;;;;16.35;2.03;;;19.40;99.90;;;;;;5052267;28;20189;-61
2022/10/16 10:57:40;;;;;;;13.13;1.63;;;20.10;99.90;;;;;;5041534;28;20268;-61
2022/10/16 11:00:40;;;;;;;11.85;1.92;;;21.40;99.90;;;;;;5052158;28;20192;-61
2022/10/16 11:03:34;;;;;;;6.28;1.30;;;21.90;99.90;;;;;;5052191;28;20158;-61
2022/10/16 11:06:08;;;;;;;5.63;1.42;;;26.20;99.90;;;;;;5052095;28;20181;-62
2022/10/16 11:08:55;;;;;;;7.47;1.63;;;26.50;99.90;;;;;;5052007;28;20235;-61
2022/10/16 11:11:31;;;;;;;6.78;1.58;;;27.30;99.90;;;;;;5051979;28;20527;-61
2022/10/16 11:14:30;;;;;;;7.50;1.40;;;28.60;99.90;;;;;;5052165;28;20176;-61
2022/10/16 11:17:10;;;;;;;10.02;1.35;;;28.50;99.90;;;;;;5047829;28;20196;-61
2022/10/16 11:20:00;;;;;;;8.15;1.55;;;25.60;99.90;;;;;;5051677;28;20203;-61
2022/10/16 11:22:57;;;;;;;8.40;1.48;;;27.30;99.90;;;;;;5051900;28;20227;-60
2022/10/16 11:25:31;;;;;;;4.63;1.48;;;27.70;99.90;;;;;;5051743;28;20207;-61
2022/10/16 11:28:21;;;;;;;8.57;1.58;;;28.80;99.90;;;;;;5051664;28;20188;-60
2022/10/16 11:30:52;;;;;;;6.10;1.27;;;28.20;99.90;;;;;;5051339;28;20176;-60
2022/10/16 11:33:17;;;;;;;6.03;1.38;;;28.40;99.90;;;;;;5051438;28;20185;-60
2022/10/16 11:35:59;;;;;;;6.68;1.55;;;27.80;99.90;;;;;;5051254;28;20221;-59
2022/10/16 11:38:57;;;;;;;7.35;1.75;;;27.90;99.90;;;;;;5051746;28;20235;-59
2022/10/16 11:41:35;;;;;;;5.68;1.40;;;26.40;99.90;;;;;;5051282;28;20173;-60
2022/10/16 11:44:27;;;;;;;8.70;1.52;;;27.20;99.90;;;;;;5051114;28;20642;-60
2022/10/16 11:47:46;;;;;;;6.93;1.65;;;24.40;99.90;;;;;;5051331;28;20165;-60
2022/10/16 11:50:17;;;;;;;7.78;1.88;;;26.70;99.90;;;;;;4989564;28;20382;-60
2022/10/16 11:52:51;;;;;;;10.98;1.70;;;28.90;99.90;;;;;;4989679;28;20183;-61
2022/10/16 11:55:20;;;;;;;5.68;1.65;;;27.90;99.90;;;;;;5024123;28;20709;-59
2022/10/16 11:58:02;;;;;;;10.00;1.83;;;25.80;99.90;;;;;;5051032;28;20205;-60
2022/10/16 12:00:36;;;;;;;9.25;1.98;;;26.80;99.90;;;;;;5049616;28;20185;-60
2022/10/16 12:03:28;;;;;;;9.95;2.10;;;26.80;99.90;;;;;;5049122;28;20205;-59
2022/10/16 12:06:25;;;;;;;8.60;2.05;;;26.20;99.90;;;;;;5049744;28;20173;-60
2022/10/16 12:08:53;;;;;;;7.60;2.03;;;27.30;99.90;;;;;;5050659;28;20201;-60
2022/10/16 12:11:33;;;;;;;11.10;2.15;;;28.90;99.90;;;;;;5050969;28;20181;-60
2022/10/16 12:14:12;;;;;;;8.10;2.15;;;28.10;99.90;;;;;;5050908;28;20238;-60
2022/10/16 12:16:51;;;;;;;6.45;1.80;;;27.00;99.90;;;;;;5050791;28;20321;-60
2022/10/16 12:19:19;;;;;;;9.98;1.83;;;24.00;99.90;;;;;;5050352;28;20258;-60
2022/10/16 12:21:45;;;;;;;12.30;1.80;;;24.90;99.90;;;;;;5050794;28;20200;-60
2022/10/16 12:24:30;;;;;;;13.50;2.30;;;26.20;99.90;;;;;;5050651;28;20204;-60
2022/10/16 12:26:56;;;;;;;12.10;2.15;;;27.50;99.90;;;;;;5050505;28;20173;-60
2022/10/16 12:29:22;;;;;;;10.38;2.40;;;;;;;;;;5049388;28;20177;-60
2022/10/16 12:31:49;;;;;;;10.93;1.83;;;22.30;99.90;;;;;;5050386;28;20670;-60
2022/10/16 12:34:37;;;;;;;12.60;2.13;;;21.70;99.90;;;;;;5050345;28;20173;-60
2022/10/16 12:37:10;;;;;;;12.93;2.00;;;20.10;99.90;;;;;;5050376;28;20251;-58
2022/10/16 12:39:37;;;;;;;8.05;1.95;;;19.80;99.90;;;;;;5049952;28;20181;-57
2022/10/16 12:42:05;;;;;;;12.00;2.00;;;21.20;99.90;;;;;;5049257;28;20276;-59
2022/10/16 12:44:35;;;;;;;13.48;2.45;;;21.90;99.90;;;;;;5054458;28;20169;-58
2022/10/16 12:47:02;;;;;;;10.98;1.90;;;20.40;99.90;;;;;;5054594;28;20579;-58
2022/10/16 12:49:27;;;;;;;11.02;2.22;;;20.10;99.90;;;;;;5054610;28;20200;-60
2022/10/16 12:51:53;;;;;;;9.50;1.88;;;20.00;99.90;;;;;;5054301;28;20540;-58
2022/10/16 12:54:28;;;;;;;8.20;1.90;;;20.40;99.90;;;;;;5054046;28;20656;-59
2022/10/16 12:57:13;;;;;;;10.57;2.40;;;20.10;99.90;;;;;;5054212;28;20164;-59
2022/10/16 12:59:51;;;;;;;14.25;2.22;;;19.10;99.90;;;;;;5054152;28;20189;-58
2022/10/16 13:02:41;;;;;;;14.27;2.38;;;18.80;99.90;;;;;;5054325;28;20225;-58
2022/10/16 13:05:23;;;;;;;10.07;2.00;;;19.30;99.90;;;;;;5053836;28;20232;-58
2022/10/16 13:08:10;;;;;;;15.73;2.33;;;20.40;99.90;;;;;;5054230;28;20172;-59
2022/10/16 13:10:56;;;;;;;13.88;2.60;;;21.20;99.90;;;;;;5053672;28;20200;-59
2022/10/16 13:13:22;;;;;;;18.65;2.10;;;;;;;;;;5053649;28;20169;-58